Terminal Aerodrome Forecast
Issued by NWS

Home | Current Version | Previous Version | Text Only | Print | Product List | Glossary On
Versions: 1 2 3 4 5 6 7 8 9 10 11 12 13 14 15 16 17 18 19 20 21 22
795
FTUS42 KTAE 211140 CCA
TAFECP
TAF COR
KECP 211140Z 2112/2212 11008KT P6SM SCT030 BKN050
     FM211230 30010KT 3SM SHRA BKN030
      TEMPO 2113/2114 30015G25KT 1SM +SHRA BKN025
     FM211500 14010KT P6SM BKN030
     FM212100 14010KT 3SM SHRA BR BKN025=

USA.gov is the U.S. government's official web portal to all federal, state and local government web resources and services.